Time,TemperatureF,DewpointF,PressureIn,WindDirection,WindDirectionDegrees,WindSpeedMPH,WindSpeedGustMPH,Humidity,HourlyPrecipIn,Conditions,Clouds,dailyrainin,SoftwareType,DateUTC
2013-04-16 00:00:00,45.6,44.3,29.95,West,270,5.0,9.0,95,0.12,,,-99.99,WeatherLink 5.4,2013-04-16 04:00:00,
2013-04-16 00:10:00,45.4,44.3,29.94,WNW,292,3.0,7.0,96,0.14,,,-99.99,WeatherLink 5.4,2013-04-16 04:10:00,
2013-04-16 00:20:00,45.2,44.1,29.94,WNW,292,3.0,6.0,96,0.14,,,-99.99,WeatherLink 5.4,2013-04-16 04:20:00,
2013-04-16 00:30:00,45.1,44.0,29.95,NW,315,4.0,6.0,96,0.13,,,-99.99,WeatherLink 5.4,2013-04-16 04:30:00,
2013-04-16 00:40:00,45.1,44.0,29.95,WNW,292,5.0,9.0,96,0.12,,,-99.99,WeatherLink 5.4,2013-04-16 04:40:00,
2013-04-16 00:50:00,45.0,43.9,29.95,West,270,5.0,9.0,96,0.11,,,-99.99,WeatherLink 5.4,2013-04-16 04:50:00,
2013-04-16 01:00:00,45.0,43.9,29.96,WSW,247,5.0,8.0,96,0.12,,,-99.99,WeatherLink 5.4,2013-04-16 05:00:00,
2013-04-16 01:10:00,45.0,43.9,29.96,West,270,5.0,8.0,96,0.10,,,-99.99,WeatherLink 5.4,2013-04-16 05:10:00,
2013-04-16 01:20:00,45.0,43.9,29.97,West,270,7.0,13.0,96,0.10,,,-99.99,WeatherLink 5.4,2013-04-16 05:20:00,
2013-04-16 01:30:00,45.0,43.9,29.98,WSW,247,7.0,13.0,96,0.09,,,-99.99,WeatherLink 5.4,2013-04-16 05:30:00,
2013-04-16 01:40:00,45.0,43.9,29.97,West,270,8.0,13.0,96,0.11,,,-99.99,WeatherLink 5.4,2013-04-16 05:40:00,
2013-04-16 01:50:00,45.0,43.9,29.96,West,270,8.0,14.0,96,0.10,,,-99.99,WeatherLink 5.4,2013-04-16 05:50:00,
2013-04-16 02:00:00,45.0,43.9,29.96,West,270,8.0,13.0,96,0.08,,,-99.99,WeatherLink 5.4,2013-04-16 06:00:00,
2013-04-16 02:10:00,44.8,43.7,29.96,West,270,8.0,13.0,96,0.06,,,-99.99,WeatherLink 5.4,2013-04-16 06:10:00,
2013-04-16 02:20:00,44.6,43.8,29.97,West,270,9.0,15.0,97,0.05,,,-99.99,WeatherLink 5.4,2013-04-16 06:20:00,
2013-04-16 02:30:00,44.3,43.2,29.96,West,270,8.0,14.0,96,0.05,,,-99.99,WeatherLink 5.4,2013-04-16 06:30:00,
2013-04-16 02:40:00,44.1,43.3,29.97,West,270,7.0,14.0,97,0.03,,,-99.99,WeatherLink 5.4,2013-04-16 06:40:00,
2013-04-16 02:50:00,44.0,43.2,29.97,West,270,9.0,18.0,97,0.03,,,-99.99,WeatherLink 5.4,2013-04-16 06:50:00,
2013-04-16 03:00:00,43.7,42.6,29.97,WSW,247,7.0,14.0,96,0.03,,,-99.99,WeatherLink 5.4,2013-04-16 07:00:00,
2013-04-16 03:10:00,42.9,41.8,29.97,West,270,9.0,15.0,96,0.03,,,-99.99,WeatherLink 5.4,2013-04-16 07:10:00,
2013-04-16 03:20:00,42.2,41.1,29.97,West,270,9.0,13.0,96,0.02,,,-99.99,WeatherLink 5.4,2013-04-16 07:20:00,
2013-04-16 03:30:00,42.0,40.9,29.97,WSW,247,7.0,10.0,96,0.01,,,-99.99,WeatherLink 5.4,2013-04-16 07:30:00,
2013-04-16 03:40:00,41.8,40.7,29.96,WSW,247,6.0,9.0,96,0.01,,,-99.99,WeatherLink 5.4,2013-04-16 07:40:00,
2013-04-16 03:50:00,41.6,40.5,29.96,West,270,8.0,13.0,96,0.01,,,-99.99,WeatherLink 5.4,2013-04-16 07:50:00,
2013-04-16 04:00:00,41.2,40.1,29.97,West,270,7.0,12.0,96,0.00,,,-99.99,WeatherLink 5.4,2013-04-16 08:00:00,
2013-04-16 04:10:00,41.0,39.9,29.98,WNW,292,8.0,14.0,96,0.00,,,-99.99,WeatherLink 5.4,2013-04-16 08:10:00,
2013-04-16 04:20:00,40.7,39.6,29.97,WNW,292,7.0,12.0,96,0.00,,,-99.99,WeatherLink 5.4,2013-04-16 08:20:00,
2013-04-16 04:30:00,40.7,39.6,29.98,WNW,292,7.0,11.0,96,0.00,,,-99.99,WeatherLink 5.4,2013-04-16 08:30:00,
2013-04-16 04:40:00,40.6,39.5,29.98,WNW,292,6.0,10.0,96,0.00,,,-99.99,WeatherLink 5.4,2013-04-16 08:40:00,
2013-04-16 04:50:00,40.5,39.4,29.99,WNW,292,6.0,11.0,96,0.00,,,-99.99,WeatherLink 5.4,2013-04-16 08:50:00,
2013-04-16 05:00:00,40.6,39.5,30.00,West,270,6.0,9.0,96,0.00,,,-99.99,WeatherLink 5.4,2013-04-16 09:00:00,
2013-04-16 05:10:00,40.7,39.6,30.00,WSW,247,7.0,11.0,96,0.00,,,-99.99,WeatherLink 5.4,2013-04-16 09:10:00,
2013-04-16 05:20:00,40.7,39.6,30.00,West,270,7.0,10.0,96,0.00,,,-99.99,WeatherLink 5.4,2013-04-16 09:20:00,
2013-04-16 05:30:00,40.7,39.6,30.01,West,270,7.0,10.0,96,0.00,,,-99.99,WeatherLink 5.4,2013-04-16 09:30:00,
2013-04-16 05:40:00,40.7,39.6,30.01,West,270,6.0,10.0,96,0.00,,,-99.99,WeatherLink 5.4,2013-04-16 09:40:00,
2013-04-16 05:50:00,40.7,39.6,30.02,WNW,292,6.0,10.0,96,0.00,,,-99.99,WeatherLink 5.4,2013-04-16 09:50:00,
2013-04-16 06:00:00,40.6,39.5,30.01,WNW,292,6.0,11.0,96,0.00,,,-99.99,WeatherLink 5.4,2013-04-16 10:00:00,
2013-04-16 06:10:00,40.4,39.4,30.01,NW,315,5.0,9.0,96,0.00,,,-99.99,WeatherLink 5.4,2013-04-16 10:10:00,
2013-04-16 06:20:00,40.3,39.3,30.02,NW,315,7.0,11.0,96,0.00,,,-99.99,WeatherLink 5.4,2013-04-16 10:20:00,
2013-04-16 06:30:00,40.3,39.3,30.02,NW,315,5.0,9.0,96,0.00,,,-99.99,WeatherLink 5.4,2013-04-16 10:30:00,
2013-04-16 06:40:00,40.2,39.2,30.02,NW,315,5.0,10.0,96,0.00,,,-99.99,WeatherLink 5.4,2013-04-16 10:40:00,
2013-04-16 06:50:00,40.1,39.1,30.02,NW,315,6.0,11.0,96,0.00,,,-99.99,WeatherLink 5.4,2013-04-16 10:50:00,
2013-04-16 07:00:00,40.1,39.1,30.03,NW,315,4.0,8.0,96,0.00,,,-99.99,WeatherLink 5.4,2013-04-16 11:00:00,
2013-04-16 07:10:00,39.9,38.6,30.04,WNW,292,2.0,6.0,95,0.00,,,-99.99,WeatherLink 5.4,2013-04-16 11:10:00,
2013-04-16 07:20:00,39.7,38.4,30.05,WNW,292,3.0,8.0,95,0.00,,,-99.99,WeatherLink 5.4,2013-04-16 11:20:00,
2013-04-16 07:30:00,39.4,38.1,30.05,WNW,292,4.0,8.0,95,0.00,,,-99.99,WeatherLink 5.4,2013-04-16 11:30:00,
2013-04-16 07:40:00,39.4,38.1,30.06,WNW,292,4.0,8.0,95,0.00,,,-99.99,WeatherLink 5.4,2013-04-16 11:40:00,
2013-04-16 07:50:00,39.4,38.1,30.06,WNW,292,4.0,7.0,95,0.00,,,-99.99,WeatherLink 5.4,2013-04-16 11:50:00,
2013-04-16 08:00:00,39.3,37.7,30.06,West,270,2.0,6.0,94,0.00,,,-99.99,WeatherLink 5.4,2013-04-16 12:00:00,
2013-04-16 08:10:00,39.3,37.7,30.07,West,270,2.0,6.0,94,0.00,,,-99.99,WeatherLink 5.4,2013-04-16 12:10:00,
2013-04-16 08:20:00,39.3,37.4,30.07,West,270,1.0,5.0,93,0.00,,,-99.99,WeatherLink 5.4,2013-04-16 12:20:00,
2013-04-16 08:30:00,39.7,37.6,30.08,WNW,292,4.0,8.0,92,0.00,,,-99.99,WeatherLink 5.4,2013-04-16 12:30:00,
2013-04-16 08:40:00,40.2,37.8,30.08,WNW,292,4.0,9.0,91,0.00,,,-99.99,WeatherLink 5.4,2013-04-16 12:40:00,
2013-04-16 08:50:00,40.6,37.3,30.08,WNW,292,6.0,9.0,88,0.00,,,-99.99,WeatherLink 5.4,2013-04-16 12:50:00,
2013-04-16 09:00:00,41.0,36.8,30.09,WNW,292,6.0,9.0,85,0.00,,,-99.99,WeatherLink 5.4,2013-04-16 13:00:00,
2013-04-16 09:10:00,41.3,36.2,30.10,WNW,292,7.0,10.0,82,0.00,,,-99.99,WeatherLink 5.4,2013-04-16 13:10:00,
2013-04-16 09:20:00,41.5,35.8,30.10,WNW,292,7.0,10.0,80,0.00,,,-99.99,WeatherLink 5.4,2013-04-16 13:20:00,
2013-04-16 09:30:00,42.1,36.4,30.10,NW,315,7.0,13.0,80,0.00,,,-99.99,WeatherLink 5.4,2013-04-16 13:30:00,
2013-04-16 09:40:00,42.0,36.0,30.11,NW,315,10.0,14.0,79,0.00,,,-99.99,WeatherLink 5.4,2013-04-16 13:40:00,
2013-04-16 09:50:00,42.2,35.8,30.11,NW,315,8.0,13.0,78,0.00,,,-99.99,WeatherLink 5.4,2013-04-16 13:50:00,
2013-04-16 10:00:00,42.4,36.0,30.11,NW,315,9.0,18.0,78,0.00,,,-99.99,WeatherLink 5.4,2013-04-16 14:00:00,
2013-04-16 10:10:00,42.4,35.0,30.12,WNW,292,8.0,14.0,75,0.00,,,-99.99,WeatherLink 5.4,2013-04-16 14:10:00,
2013-04-16 10:20:00,42.9,35.2,30.12,WNW,292,9.0,15.0,74,0.00,,,-99.99,WeatherLink 5.4,2013-04-16 14:20:00,
2013-04-16 10:30:00,43.2,35.1,30.13,WNW,292,9.0,16.0,73,0.00,,,-99.99,WeatherLink 5.4,2013-04-16 14:30:00,
2013-04-16 10:40:00,43.5,35.1,30.13,WNW,292,8.0,14.0,72,0.00,,,-99.99,WeatherLink 5.4,2013-04-16 14:40:00,
2013-04-16 10:50:00,43.3,35.2,30.14,WNW,292,9.0,15.0,73,0.00,,,-99.99,WeatherLink 5.4,2013-04-16 14:50:00,
2013-04-16 11:00:00,43.6,34.8,30.13,WNW,292,9.0,15.0,71,0.00,,,-99.99,WeatherLink 5.4,2013-04-16 15:00:00,
2013-04-16 11:10:00,43.6,34.8,30.13,WNW,292,9.0,16.0,71,0.00,,,-99.99,WeatherLink 5.4,2013-04-16 15:10:00,
2013-04-16 11:20:00,44.2,35.0,30.14,West,270,9.0,20.0,70,0.00,,,-99.99,WeatherLink 5.4,2013-04-16 15:20:00,
2013-04-16 11:30:00,44.7,35.9,30.14,WNW,292,8.0,16.0,71,0.00,,,-99.99,WeatherLink 5.4,2013-04-16 15:30:00,
2013-04-16 11:40:00,44.4,35.9,30.14,West,270,11.0,19.0,72,0.00,,,-99.99,WeatherLink 5.4,2013-04-16 15:40:00,
2013-04-16 11:50:00,44.4,35.9,30.15,West,270,10.0,22.0,72,0.00,,,-99.99,WeatherLink 5.4,2013-04-16 15:50:00,
2013-04-16 12:00:00,44.2,35.4,30.15,WNW,292,12.0,20.0,71,0.00,,,-99.99,WeatherLink 5.4,2013-04-16 16:00:00,
2013-04-16 12:10:00,44.0,35.2,30.15,WNW,292,10.0,20.0,71,0.00,,,-99.99,WeatherLink 5.4,2013-04-16 16:10:00,
2013-04-16 12:20:00,44.5,35.7,30.14,West,270,10.0,16.0,71,0.00,,,-99.99,WeatherLink 5.4,2013-04-16 16:20:00,
2013-04-16 12:30:00,44.3,34.0,30.14,WNW,292,10.0,15.0,67,0.00,,,-99.99,WeatherLink 5.4,2013-04-16 16:30:00,
2013-04-16 12:40:00,44.6,35.4,30.14,WNW,292,11.0,16.0,70,0.00,,,-99.99,WeatherLink 5.4,2013-04-16 16:40:00,
2013-04-16 12:50:00,45.0,34.7,30.16,West,270,11.0,19.0,67,0.00,,,-99.99,WeatherLink 5.4,2013-04-16 16:50:00,
2013-04-16 13:00:00,44.7,34.0,30.16,WNW,292,11.0,21.0,66,0.00,,,-99.99,WeatherLink 5.4,2013-04-16 17:00:00,
2013-04-16 13:10:00,44.7,35.1,30.16,NW,315,12.0,18.0,69,0.00,,,-99.99,WeatherLink 5.4,2013-04-16 17:10:00,
2013-04-16 13:20:00,45.4,35.5,30.17,WNW,292,12.0,21.0,68,0.00,,,-99.99,WeatherLink 5.4,2013-04-16 17:20:00,
2013-04-16 13:30:00,45.0,34.7,30.17,West,270,11.0,22.0,67,0.00,,,-99.99,WeatherLink 5.4,2013-04-16 17:30:00,
2013-04-16 13:40:00,45.0,35.1,30.18,WNW,292,12.0,19.0,68,0.00,,,-99.99,WeatherLink 5.4,2013-04-16 17:40:00,
2013-04-16 13:50:00,45.5,37.0,30.18,WNW,292,11.0,20.0,72,0.00,,,-99.99,WeatherLink 5.4,2013-04-16 17:50:00,
2013-04-16 14:00:00,46.2,35.8,30.18,WNW,292,9.0,16.0,67,0.00,,,-99.99,WeatherLink 5.4,2013-04-16 18:00:00,
2013-04-16 14:10:00,46.2,35.8,30.18,West,270,11.0,19.0,67,0.00,,,-99.99,WeatherLink 5.4,2013-04-16 18:10:00,
2013-04-16 14:20:00,45.9,35.6,30.18,West,270,11.0,18.0,67,0.00,,,-99.99,WeatherLink 5.4,2013-04-16 18:20:00,
2013-04-16 14:30:00,46.7,35.9,30.19,WNW,292,10.0,22.0,66,0.00,,,-99.99,WeatherLink 5.4,2013-04-16 18:30:00,
2013-04-16 14:40:00,46.1,34.6,30.19,West,270,11.0,21.0,64,0.00,,,-99.99,WeatherLink 5.4,2013-04-16 18:40:00,
2013-04-16 14:50:00,45.6,34.5,30.20,West,270,12.0,21.0,65,0.00,,,-99.99,WeatherLink 5.4,2013-04-16 18:50:00,
2013-04-16 15:00:00,45.6,34.9,30.20,WSW,247,13.0,22.0,66,0.00,,,-99.99,WeatherLink 5.4,2013-04-16 19:00:00,
2013-04-16 15:10:00,46.1,35.7,30.21,West,270,10.0,21.0,67,0.00,,,-99.99,WeatherLink 5.4,2013-04-16 19:10:00,
2013-04-16 15:20:00,46.1,36.5,30.20,West,270,10.0,19.0,69,0.00,,,-99.99,WeatherLink 5.4,2013-04-16 19:20:00,
2013-04-16 15:30:00,45.7,35.7,30.19,West,270,11.0,16.0,68,0.00,,,-99.99,WeatherLink 5.4,2013-04-16 19:30:00,
2013-04-16 15:40:00,46.1,35.7,30.20,NW,315,9.0,19.0,67,0.00,,,-99.99,WeatherLink 5.4,2013-04-16 19:40:00,
2013-04-16 15:50:00,46.2,35.8,30.21,West,270,11.0,22.0,67,0.00,,,-99.99,WeatherLink 5.4,2013-04-16 19:50:00,
2013-04-16 16:00:00,45.7,36.1,30.21,West,270,12.0,19.0,69,0.00,,,-99.99,WeatherLink 5.4,2013-04-16 20:00:00,
2013-04-16 16:10:00,45.6,36.0,30.21,WNW,292,9.0,16.0,69,0.00,,,-99.99,WeatherLink 5.4,2013-04-16 20:10:00,
2013-04-16 16:20:00,45.8,35.1,30.21,NW,315,10.0,16.0,66,0.00,,,-99.99,WeatherLink 5.4,2013-04-16 20:20:00,
2013-04-16 16:30:00,46.0,35.3,30.21,WNW,292,10.0,16.0,66,0.00,,,-99.99,WeatherLink 5.4,2013-04-16 20:30:00,
2013-04-16 16:40:00,45.4,34.7,30.21,WNW,292,10.0,18.0,66,0.00,,,-99.99,WeatherLink 5.4,2013-04-16 20:40:00,
2013-04-16 16:50:00,46.2,35.8,30.20,WNW,292,8.0,14.0,67,0.00,,,-99.99,WeatherLink 5.4,2013-04-16 20:50:00,
2013-04-16 17:00:00,45.6,36.0,30.20,WNW,292,10.0,18.0,69,0.00,,,-99.99,WeatherLink 5.4,2013-04-16 21:00:00,
2013-04-16 17:10:00,45.9,35.9,30.20,NW,315,10.0,18.0,68,0.00,,,-99.99,WeatherLink 5.4,2013-04-16 21:10:00,
2013-04-16 17:20:00,46.1,35.4,30.21,WNW,292,9.0,15.0,66,0.00,,,-99.99,WeatherLink 5.4,2013-04-16 21:20:00,
2013-04-16 17:30:00,46.0,36.0,30.21,West,270,8.0,15.0,68,0.00,,,-99.99,WeatherLink 5.4,2013-04-16 21:30:00,
2013-04-16 17:40:00,46.1,36.1,30.22,NW,315,8.0,12.0,68,0.00,,,-99.99,WeatherLink 5.4,2013-04-16 21:40:00,
2013-04-16 17:50:00,46.1,35.4,30.22,NW,315,7.0,13.0,66,0.00,,,-99.99,WeatherLink 5.4,2013-04-16 21:50:00,
2013-04-16 18:00:00,46.6,36.2,30.23,WNW,292,6.0,9.0,67,0.00,,,-99.99,WeatherLink 5.4,2013-04-16 22:00:00,
2013-04-16 18:10:00,46.2,36.2,30.23,WNW,292,7.0,12.0,68,0.00,,,-99.99,WeatherLink 5.4,2013-04-16 22:10:00,
2013-04-16 18:20:00,46.0,36.4,30.24,WSW,247,5.0,10.0,69,0.00,,,-99.99,WeatherLink 5.4,2013-04-16 22:20:00,
2013-04-16 18:30:00,45.9,36.3,30.24,NW,315,6.0,10.0,69,0.00,,,-99.99,WeatherLink 5.4,2013-04-16 22:30:00,
2013-04-16 18:40:00,45.6,36.4,30.24,West,270,5.0,9.0,70,0.00,,,-99.99,WeatherLink 5.4,2013-04-16 22:40:00,
2013-04-16 18:50:00,45.4,36.5,30.24,West,270,5.0,8.0,71,0.00,,,-99.99,WeatherLink 5.4,2013-04-16 22:50:00,
2013-04-16 19:00:00,45.4,36.5,30.24,WSW,247,5.0,9.0,71,0.00,,,-99.99,WeatherLink 5.4,2013-04-16 23:00:00,
2013-04-16 19:10:00,45.6,36.7,30.23,WNW,292,3.0,7.0,71,0.00,,,-99.99,WeatherLink 5.4,2013-04-16 23:10:00,
2013-04-16 19:20:00,45.2,36.0,30.24,West,270,4.0,6.0,70,0.00,,,-99.99,WeatherLink 5.4,2013-04-16 23:20:00,
2013-04-16 19:30:00,45.0,36.5,30.24,West,270,4.0,8.0,72,0.00,,,-99.99,WeatherLink 5.4,2013-04-16 23:30:00,
2013-04-16 19:40:00,44.8,36.7,30.24,West,270,5.0,8.0,73,0.00,,,-99.99,WeatherLink 5.4,2013-04-16 23:40:00,
2013-04-16 19:50:00,44.5,36.7,30.25,West,270,5.0,10.0,74,0.00,,,-99.99,WeatherLink 5.4,2013-04-16 23:50:00,
2013-04-16 20:00:00,43.9,36.5,30.25,WSW,247,6.0,10.0,75,0.00,,,-99.99,WeatherLink 5.4,2013-04-17 00:00:00,
2013-04-16 20:10:00,43.2,36.1,30.25,WSW,247,6.0,9.0,76,0.00,,,-99.99,WeatherLink 5.4,2013-04-17 00:10:00,
2013-04-16 20:20:00,42.8,36.1,30.25,West,270,6.0,8.0,77,0.00,,,-99.99,WeatherLink 5.4,2013-04-17 00:20:00,
2013-04-16 20:30:00,42.5,36.1,30.25,West,270,6.0,8.0,78,0.00,,,-99.99,WeatherLink 5.4,2013-04-17 00:30:00,
2013-04-16 20:40:00,42.3,35.9,30.26,WSW,247,6.0,9.0,78,0.00,,,-99.99,WeatherLink 5.4,2013-04-17 00:40:00,
2013-04-16 20:50:00,42.2,36.2,30.27,WSW,247,5.0,7.0,79,0.00,,,-99.99,WeatherLink 5.4,2013-04-17 00:50:00,
2013-04-16 21:00:00,42.1,36.1,30.26,West,270,5.0,9.0,79,0.00,,,-99.99,WeatherLink 5.4,2013-04-17 01:00:00,
2013-04-16 21:10:00,42.0,36.0,30.26,West,270,4.0,6.0,79,0.00,,,-99.99,WeatherLink 5.4,2013-04-17 01:10:00,
2013-04-16 21:20:00,41.8,36.1,30.27,West,270,2.0,5.0,80,0.00,,,-99.99,WeatherLink 5.4,2013-04-17 01:20:00,
2013-04-16 21:30:00,41.9,36.5,30.27,West,270,2.0,5.0,81,0.00,,,-99.99,WeatherLink 5.4,2013-04-17 01:30:00,
2013-04-16 21:40:00,41.9,36.5,30.27,NW,315,3.0,6.0,81,0.00,,,-99.99,WeatherLink 5.4,2013-04-17 01:40:00,
2013-04-16 21:50:00,42.0,36.3,30.28,NW,315,3.0,6.0,80,0.00,,,-99.99,WeatherLink 5.4,2013-04-17 01:50:00,
2013-04-16 22:00:00,42.0,36.9,30.29,NW,315,2.0,4.0,82,0.00,,,-99.99,WeatherLink 5.4,2013-04-17 02:00:00,
2013-04-16 22:10:00,42.0,36.9,30.29,NW,315,1.0,4.0,82,0.00,,,-99.99,WeatherLink 5.4,2013-04-17 02:10:00,
2013-04-16 22:20:00,42.1,37.0,30.29,NW,315,2.0,5.0,82,0.00,,,-99.99,WeatherLink 5.4,2013-04-17 02:20:00,
2013-04-16 22:30:00,42.2,36.8,30.29,NW,315,3.0,5.0,81,0.00,,,-99.99,WeatherLink 5.4,2013-04-17 02:30:00,
2013-04-16 22:40:00,42.2,37.1,30.28,North,0,4.0,6.0,82,0.00,,,-99.99,WeatherLink 5.4,2013-04-17 02:40:00,
2013-04-16 22:50:00,42.5,37.4,30.29,NNW,337,2.0,5.0,82,0.00,,,-99.99,WeatherLink 5.4,2013-04-17 02:50:00,
2013-04-16 23:00:00,42.5,36.8,30.29,NW,315,2.0,5.0,80,0.00,,,-99.99,WeatherLink 5.4,2013-04-17 03:00:00,
2013-04-16 23:10:00,42.8,36.7,30.28,North,0,4.0,7.0,79,0.00,,,-99.99,WeatherLink 5.4,2013-04-17 03:10:00,
2013-04-16 23:20:00,42.8,36.4,30.29,North,0,5.0,9.0,78,0.00,,,-99.99,WeatherLink 5.4,2013-04-17 03:20:00,
2013-04-16 23:30:00,43.0,35.6,30.28,North,0,6.0,9.0,75,0.00,,,-99.99,WeatherLink 5.4,2013-04-17 03:30:00,
2013-04-16 23:40:00,43.0,35.3,30.27,NNE,22,6.0,10.0,74,0.00,,,-99.99,WeatherLink 5.4,2013-04-17 03:40:00,
2013-04-16 23:50:00,42.6,35.2,30.30,North,0,5.0,8.0,75,0.00,,,-99.99,WeatherLink 5.4,2013-04-17 03:50:00,